sensor_id;sensor_type;location;lat;lon;timestamp;pressure;altitude;pressure_sealevel;temperature;humidity
5872;BME280;2962;51.312;7.378;2023-03-01T00:01:14;98617.28;;;-2.37;100.00
5872;BME280;2962;51.312;7.378;2023-03-01T00:03:41;98624.81;;;-2.29;100.00
5872;BME280;2962;51.312;7.378;2023-03-01T00:06:06;98604.38;;;-2.51;100.00
5872;BME280;2962;51.312;7.378;2023-03-01T00:08:32;98614.56;;;-2.42;100.00
5872;BME280;2962;51.312;7.378;2023-03-01T00:11:25;98620.94;;;-2.49;100.00
5872;BME280;2962;51.312;7.378;2023-03-01T00:13:54;98626.22;;;-2.54;100.00
5872;BME280;2962;51.312;7.378;2023-03-01T00:16:28;98621.94;;;-2.55;100.00
5872;BME280;2962;51.312;7.378;2023-03-01T00:18:55;98623.00;;;-2.56;100.00
5872;BME280;2962;51.312;7.378;2023-03-01T00:21:21;98619.03;;;-2.53;100.00
5872;BME280;2962;51.312;7.378;2023-03-01T00:23:47;98617.97;;;-2.52;100.00
5872;BME280;2962;51.312;7.378;2023-03-01T00:26:14;98617.41;;;-2.54;100.00
5872;BME280;2962;51.312;7.378;2023-03-01T00:28:40;98606.09;;;-2.66;100.00
5872;BME280;2962;51.312;7.378;2023-03-01T00:31:07;98598.84;;;-2.76;100.00
5872;BME280;2962;51.312;7.378;2023-03-01T00:33:33;98599.84;;;-2.82;100.00
5872;BME280;2962;51.312;7.378;2023-03-01T00:35:59;98596.03;;;-2.91;100.00
5872;BME280;2962;51.312;7.378;2023-03-01T00:38:25;98601.59;;;-2.93;100.00
5872;BME280;2962;51.312;7.378;2023-03-01T00:40:51;98601.81;;;-3.00;100.00
5872;BME280;2962;51.312;7.378;2023-03-01T00:43:16;98591.34;;;-3.06;100.00
5872;BME280;2962;51.312;7.378;2023-03-01T00:45:41;98599.66;;;-3.03;100.00
5872;BME280;2962;51.312;7.378;2023-03-01T00:48:07;98598.31;;;-3.00;100.00
5872;BME280;2962;51.312;7.378;2023-03-01T00:50:32;98590.59;;;-3.02;100.00
5872;BME280;2962;51.312;7.378;2023-03-01T00:52:57;98586.91;;;-2.96;100.00
5872;BME280;2962;51.312;7.378;2023-03-01T00:55:23;98580.47;;;-3.00;100.00
5872;BME280;2962;51.312;7.378;2023-03-01T00:57:49;98586.06;;;-3.01;100.00
5872;BME280;2962;51.312;7.378;2023-03-01T01:00:14;98581.19;;;-3.09;100.00
5872;BME280;2962;51.312;7.378;2023-03-01T01:02:39;98580.88;;;-3.13;100.00
5872;BME280;2962;51.312;7.378;2023-03-01T01:05:05;98580.03;;;-3.18;100.00
5872;BME280;2962;51.312;7.378;2023-03-01T01:07:31;98578.63;;;-3.26;100.00
5872;BME280;2962;51.312;7.378;2023-03-01T01:09:56;98580.22;;;-3.25;100.00
5872;BME280;2962;51.312;7.378;2023-03-01T01:12:21;98568.94;;;-3.32;100.00
5872;BME280;2962;51.312;7.378;2023-03-01T01:14:47;98567.34;;;-3.33;100.00
5872;BME280;2962;51.312;7.378;2023-03-01T01:17:12;98571.72;;;-3.22;100.00
5872;BME280;2962;51.312;7.378;2023-03-01T01:19:37;98566.59;;;-3.29;100.00
5872;BME280;2962;51.312;7.378;2023-03-01T01:22:03;98565.75;;;-3.34;100.00
5872;BME280;2962;51.312;7.378;2023-03-01T01:24:28;98567.34;;;-3.33;100.00
5872;BME280;2962;51.312;7.378;2023-03-01T01:26:54;98564.09;;;-3.35;100.00
5872;BME280;2962;51.312;7.378;2023-03-01T01:29:19;98564.59;;;-3.38;100.00
5872;BME280;2962;51.312;7.378;2023-03-01T01:31:44;98560.53;;;-3.46;100.00
5872;BME280;2962;51.312;7.378;2023-03-01T01:34:15;98548.03;;;-3.46;100.00
5872;BME280;2962;51.312;7.378;2023-03-01T01:36:40;98541.06;;;-3.47;100.00
5872;BME280;2962;51.312;7.378;2023-03-01T01:39:05;98536.75;;;-3.53;100.00
5872;BME280;2962;51.312;7.378;2023-03-01T01:41:31;98538.41;;;-3.47;100.00
5872;BME280;2962;51.312;7.378;2023-03-01T01:44:16;98538.41;;;-3.47;100.00
5872;BME280;2962;51.312;7.378;2023-03-01T01:47:03;98537.88;;;-3.49;100.00
5872;BME280;2962;51.312;7.378;2023-03-01T01:49:46;98535.28;;;-3.38;100.00
5872;BME280;2962;51.312;7.378;2023-03-01T01:52:22;98535.56;;;-3.40;100.00
5872;BME280;2962;51.312;7.378;2023-03-01T01:55:05;98541.63;;;-3.45;100.00
5872;BME280;2962;51.312;7.378;2023-03-01T01:57:37;98522.81;;;-3.38;100.00
5872;BME280;2962;51.312;7.378;2023-03-01T02:00:11;98544.97;;;-3.32;100.00
5872;BME280;2962;51.312;7.378;2023-03-01T02:02:38;98530.84;;;-3.33;100.00
5872;BME280;2962;51.312;7.378;2023-03-01T02:05:13;98544.91;;;-3.37;100.00
5872;BME280;2962;51.312;7.378;2023-03-01T02:07:41;98542.28;;;-3.32;100.00
5872;BME280;2962;51.312;7.378;2023-03-01T02:10:08;98538.03;;;-3.33;100.00
5872;BME280;2962;51.312;7.378;2023-03-01T02:12:33;98543.06;;;-3.37;100.00
5872;BME280;2962;51.312;7.378;2023-03-01T02:14:59;98538.47;;;-3.41;100.00
5872;BME280;2962;51.312;7.378;2023-03-01T02:17:24;98535.81;;;-3.41;100.00
5872;BME280;2962;51.312;7.378;2023-03-01T02:20:19;98527.81;;;-3.41;100.00
5872;BME280;2962;51.312;7.378;2023-03-01T02:22:48;98524.56;;;-3.49;100.00
5872;BME280;2962;51.312;7.378;2023-03-01T02:30:41;98514.72;;;-3.70;100.00
5872;BME280;2962;51.312;7.378;2023-03-01T02:33:28;98512.53;;;-3.73;100.00
5872;BME280;2962;51.312;7.378;2023-03-01T02:35:54;98518.25;;;-3.64;100.00
5872;BME280;2962;51.312;7.378;2023-03-01T02:38:22;98516.84;;;-3.72;100.00
5872;BME280;2962;51.312;7.378;2023-03-01T02:40:49;98505.06;;;-3.76;100.00
5872;BME280;2962;51.312;7.378;2023-03-01T02:43:16;98517.47;;;-3.65;100.00
5872;BME280;2962;51.312;7.378;2023-03-01T02:45:53;98516.56;;;-3.71;100.00
5872;BME280;2962;51.312;7.378;2023-03-01T02:48:19;98506.22;;;-3.67;100.00
5872;BME280;2962;51.312;7.378;2023-03-01T02:53:16;98523.63;;;-3.81;100.00
5872;BME280;2962;51.312;7.378;2023-03-01T02:55:46;98517.69;;;-3.88;100.00
5872;BME280;2962;51.312;7.378;2023-03-01T02:58:11;98523.31;;;-3.85;100.00
5872;BME280;2962;51.312;7.378;2023-03-01T03:00:39;98520.47;;;-3.78;100.00
5872;BME280;2962;51.312;7.378;2023-03-01T03:03:19;98517.03;;;-3.79;100.00
5872;BME280;2962;51.312;7.378;2023-03-01T03:05:45;98513.69;;;-3.91;100.00
5872;BME280;2962;51.312;7.378;2023-03-01T03:08:10;98500.16;;;-3.84;100.00
5872;BME280;2962;51.312;7.378;2023-03-01T03:10:39;98504.03;;;-3.75;100.00
5872;BME280;2962;51.312;7.378;2023-03-01T03:13:13;98505.00;;;-3.81;100.00
5872;BME280;2962;51.312;7.378;2023-03-01T03:15:40;98485.91;;;-3.73;100.00
5872;BME280;2962;51.312;7.378;2023-03-01T03:18:11;98497.09;;;-3.76;100.00
5872;BME280;2962;51.312;7.378;2023-03-01T03:20:39;98486.19;;;-3.75;100.00
5872;BME280;2962;51.312;7.378;2023-03-01T03:23:05;98486.06;;;-3.85;100.00
5872;BME280;2962;51.312;7.378;2023-03-01T03:25:30;98480.53;;;-3.78;100.00
5872;BME280;2962;51.312;7.378;2023-03-01T03:27:56;98486.84;;;-3.84;100.00
5872;BME280;2962;51.312;7.378;2023-03-01T03:30:30;98491.38;;;-3.85;100.00
5872;BME280;2962;51.312;7.378;2023-03-01T03:32:57;98487.13;;;-3.86;100.00
5872;BME280;2962;51.312;7.378;2023-03-01T03:35:27;98490.66;;;-3.80;100.00
5872;BME280;2962;51.312;7.378;2023-03-01T03:37:55;98490.47;;;-3.96;100.00
5872;BME280;2962;51.312;7.378;2023-03-01T03:40:28;98487.91;;;-3.85;100.00
5872;BME280;2962;51.312;7.378;2023-03-01T03:42:54;98486.75;;;-3.95;100.00
5872;BME280;2962;51.312;7.378;2023-03-01T03:45:19;98488.97;;;-3.86;100.00
5872;BME280;2962;51.312;7.378;2023-03-01T03:47:45;98492.56;;;-3.98;100.00
5872;BME280;2962;51.312;7.378;2023-03-01T03:50:12;98489.91;;;-3.98;100.00
5872;BME280;2962;51.312;7.378;2023-03-01T03:52:38;98483.91;;;-4.10;100.00
5872;BME280;2962;51.312;7.378;2023-03-01T03:55:05;98463.78;;;-4.01;100.00
5872;BME280;2962;51.312;7.378;2023-03-01T03:57:37;98456.69;;;-4.17;100.00
5872;BME280;2962;51.312;7.378;2023-03-01T04:00:03;98470.78;;;-4.17;100.00
5872;BME280;2962;51.312;7.378;2023-03-01T04:02:30;98461.81;;;-4.10;100.00
5872;BME280;2962;51.312;7.378;2023-03-01T04:04:55;98460.13;;;-4.17;100.00
5872;BME280;2962;51.312;7.378;2023-03-01T04:07:20;98464.28;;;-4.26;100.00
5872;BME280;2962;51.312;7.378;2023-03-01T04:09:46;98466.22;;;-4.21;100.00
5872;BME280;2962;51.312;7.378;2023-03-01T04:12:11;98465.16;;;-4.20;100.00
5872;BME280;2962;51.312;7.378;2023-03-01T04:14:36;98465.72;;;-4.18;100.00
5872;BME280;2962;51.312;7.378;2023-03-01T04:17:02;98472.81;;;-4.24;100.00
5872;BME280;2962;51.312;7.378;2023-03-01T04:19:33;98461.94;;;-4.22;100.00
5872;BME280;2962;51.312;7.378;2023-03-01T04:22:02;98468.28;;;-4.23;100.00
5872;BME280;2962;51.312;7.378;2023-03-01T04:24:33;98473.31;;;-4.27;100.00
5872;BME280;2962;51.312;7.378;2023-03-01T04:26:58;98469.13;;;-4.23;100.00
5872;BME280;2962;51.312;7.378;2023-03-01T04:29:23;98464.84;;;-4.24;100.00
5872;BME280;2962;51.312;7.378;2023-03-01T04:31:48;98464.34;;;-4.21;100.00
5872;BME280;2962;51.312;7.378;2023-03-01T04:34:14;98459.81;;;-4.20;100.00
5872;BME280;2962;51.312;7.378;2023-03-01T04:36:39;98461.13;;;-4.23;100.00
5872;BME280;2962;51.312;7.378;2023-03-01T04:39:05;98456.53;;;-4.27;100.00
5872;BME280;2962;51.312;7.378;2023-03-01T04:41:38;98457.06;;;-4.30;100.00
5872;BME280;2962;51.312;7.378;2023-03-01T04:44:04;98461.44;;;-4.19;100.00
5872;BME280;2962;51.312;7.378;2023-03-01T04:46:30;98449.81;;;-4.13;100.00
5872;BME280;2962;51.312;7.378;2023-03-01T04:48:55;98457.28;;;-4.10;100.00
5872;BME280;2962;51.312;7.378;2023-03-01T04:51:20;98447.72;;;-4.11;100.00
5872;BME280;2962;51.312;7.378;2023-03-01T04:53:46;98451.66;;;-4.13;100.00
5872;BME280;2962;51.312;7.378;2023-03-01T04:56:12;98456.94;;;-4.19;100.00
5872;BME280;2962;51.312;7.378;2023-03-01T04:58:39;98458.47;;;-4.23;100.00
5872;BME280;2962;51.312;7.378;2023-03-01T05:01:12;98460.09;;;-4.22;100.00
5872;BME280;2962;51.312;7.378;2023-03-01T05:03:45;98438.81;;;-4.22;100.00
5872;BME280;2962;51.312;7.378;2023-03-01T05:06:11;98454.28;;;-4.19;100.00
5872;BME280;2962;51.312;7.378;2023-03-01T05:08:38;98455.25;;;-4.25;100.00
5872;BME280;2962;51.312;7.378;2023-03-01T05:11:03;98466.16;;;-4.26;100.00
5872;BME280;2962;51.312;7.378;2023-03-01T05:13:29;98454.63;;;-4.32;100.00
5872;BME280;2962;51.312;7.378;2023-03-01T05:15:59;98456.53;;;-4.27;100.00
5872;BME280;2962;51.312;7.378;2023-03-01T05:18:26;98455.69;;;-4.33;100.00
5872;BME280;2962;51.312;7.378;2023-03-01T05:20:54;98454.44;;;-4.25;100.00
5872;BME280;2962;51.312;7.378;2023-03-01T05:23:24;98452.84;;;-4.26;100.00
5872;BME280;2962;51.312;7.378;2023-03-01T05:25:50;98452.84;;;-4.26;100.00
5872;BME280;2962;51.312;7.378;2023-03-01T05:28:18;98453.06;;;-4.28;100.00
5872;BME280;2962;51.312;7.378;2023-03-01T05:30:44;98452.44;;;-4.35;100.00
5872;BME280;2962;51.312;7.378;2023-03-01T05:33:10;98455.44;;;-4.31;100.00
5872;BME280;2962;51.312;7.378;2023-03-01T05:35:39;98435.63;;;-4.40;100.00
5872;BME280;2962;51.312;7.378;2023-03-01T05:38:06;98444.59;;;-4.25;100.00
5872;BME280;2962;51.312;7.378;2023-03-01T05:40:33;98441.09;;;-4.30;100.00
5872;BME280;2962;51.312;7.378;2023-03-01T05:42:58;98435.19;;;-4.32;100.00
5872;BME280;2962;51.312;7.378;2023-03-01T05:45:25;98443.25;;;-4.27;100.00
5872;BME280;2962;51.312;7.378;2023-03-01T05:47:52;98448.38;;;-4.43;100.00
5872;BME280;2962;51.312;7.378;2023-03-01T05:50:26;98441.44;;;-4.44;100.00
5872;BME280;2962;51.312;7.378;2023-03-01T05:55:22;98438.25;;;-4.46;100.00
5872;BME280;2962;51.312;7.378;2023-03-01T05:57:48;98443.63;;;-4.40;100.00
5872;BME280;2962;51.312;7.378;2023-03-01T06:00:16;98436.88;;;-4.48;100.00
5872;BME280;2962;51.312;7.378;2023-03-01T06:02:42;98431.28;;;-4.47;100.00
5872;BME280;2962;51.312;7.378;2023-03-01T06:05:09;98433.47;;;-4.44;100.00
5872;BME280;2962;51.312;7.378;2023-03-01T06:07:35;98445.34;;;-4.51;100.00
5872;BME280;2962;51.312;7.378;2023-03-01T06:10:02;98446.34;;;-4.35;100.00
5872;BME280;2962;51.312;7.378;2023-03-01T06:12:32;98441.50;;;-4.38;100.00
5872;BME280;2962;51.312;7.378;2023-03-01T06:14:58;98447.06;;;-4.40;100.00
5872;BME280;2962;51.312;7.378;2023-03-01T06:17:24;98437.81;;;-4.37;100.00
5872;BME280;2962;51.312;7.378;2023-03-01T06:19:49;98450.38;;;-4.33;100.00
5872;BME280;2962;51.312;7.378;2023-03-01T06:22:14;98448.56;;;-4.27;100.00
5872;BME280;2962;51.312;7.378;2023-03-01T06:24:40;98443.66;;;-4.35;100.00
5872;BME280;2962;51.312;7.378;2023-03-01T06:27:05;98436.59;;;-4.47;100.00
5872;BME280;2962;51.312;7.378;2023-03-01T06:29:30;98442.94;;;-4.53;100.00
5872;BME280;2962;51.312;7.378;2023-03-01T06:31:56;98437.97;;;-4.44;100.00
5872;BME280;2962;51.312;7.378;2023-03-01T06:34:21;98440.91;;;-4.46;100.00
5872;BME280;2962;51.312;7.378;2023-03-01T06:36:47;98444.09;;;-4.44;100.00
5872;BME280;2962;51.312;7.378;2023-03-01T06:39:12;98443.97;;;-4.32;100.00
5872;BME280;2962;51.312;7.378;2023-03-01T06:41:38;98431.16;;;-4.35;100.00
5872;BME280;2962;51.312;7.378;2023-03-01T06:44:03;98433.97;;;-4.25;100.00
5872;BME280;2962;51.312;7.378;2023-03-01T06:46:29;98433.47;;;-4.22;100.00
5872;BME280;2962;51.312;7.378;2023-03-01T06:48:54;98421.22;;;-4.23;100.00
5872;BME280;2962;51.312;7.378;2023-03-01T06:51:19;98416.19;;;-4.19;100.00
5872;BME280;2962;51.312;7.378;2023-03-01T06:53:45;98419.13;;;-4.21;100.00
5872;BME280;2962;51.312;7.378;2023-03-01T06:56:11;98425.06;;;-4.13;100.00
5872;BME280;2962;51.312;7.378;2023-03-01T06:58:36;98427.00;;;-4.04;100.00
5872;BME280;2962;51.312;7.378;2023-03-01T07:01:06;98417.50;;;-4.00;100.00
5872;BME280;2962;51.312;7.378;2023-03-01T07:03:31;98419.75;;;-3.86;100.00
5872;BME280;2962;51.312;7.378;2023-03-01T07:05:56;98413.88;;;-3.88;100.00
5872;BME280;2962;51.312;7.378;2023-03-01T07:08:22;98425.91;;;-3.81;100.00
5872;BME280;2962;51.312;7.378;2023-03-01T07:10:47;98418.53;;;-3.74;100.00
5872;BME280;2962;51.312;7.378;2023-03-01T07:13:12;98410.94;;;-3.65;100.00
5872;BME280;2962;51.312;7.378;2023-03-01T07:15:40;98416.44;;;-3.45;100.00
5872;BME280;2962;51.312;7.378;2023-03-01T07:18:05;98412.28;;;-3.30;100.00
5872;BME280;2962;51.312;7.378;2023-03-01T07:20:30;98417.56;;;-3.03;100.00
5872;BME280;2962;51.312;7.378;2023-03-01T07:22:56;98400.38;;;-2.80;100.00
5872;BME280;2962;51.312;7.378;2023-03-01T07:25:23;98404.53;;;-2.47;100.00
5872;BME280;2962;51.312;7.378;2023-03-01T07:27:52;98411.53;;;-2.31;100.00
5872;BME280;2962;51.312;7.378;2023-03-01T07:30:19;98403.84;;;-2.22;100.00
5872;BME280;2962;51.312;7.378;2023-03-01T07:32:45;98407.09;;;-2.10;100.00
5872;BME280;2962;51.312;7.378;2023-03-01T07:35:11;98411.94;;;-1.97;100.00
5872;BME280;2962;51.312;7.378;2023-03-01T07:37:36;98406.59;;;-1.97;100.00
5872;BME280;2962;51.312;7.378;2023-03-01T07:40:02;98395.38;;;-1.88;100.00
5872;BME280;2962;51.312;7.378;2023-03-01T07:42:27;98394.06;;;-1.91;100.00
5872;BME280;2962;51.312;7.378;2023-03-01T07:44:52;98402.94;;;-1.65;100.00
5872;BME280;2962;51.312;7.378;2023-03-01T07:47:18;98395.72;;;-1.64;100.00
5872;BME280;2962;51.312;7.378;2023-03-01T07:49:43;98398.41;;;-1.39;100.00
5872;BME280;2962;51.312;7.378;2023-03-01T07:52:11;98396.81;;;-1.30;100.00
5872;BME280;2962;51.312;7.378;2023-03-01T07:54:37;98386.38;;;-1.26;100.00
5872;BME280;2962;51.312;7.378;2023-03-01T07:57:02;98396.28;;;-1.21;100.00
5872;BME280;2962;51.312;7.378;2023-03-01T07:59:27;98409.09;;;-1.13;100.00
5872;BME280;2962;51.312;7.378;2023-03-01T08:01:55;98410.16;;;-1.04;100.00
5872;BME280;2962;51.312;7.378;2023-03-01T08:04:21;98404.00;;;-0.84;100.00
5872;BME280;2962;51.312;7.378;2023-03-01T08:06:47;98387.91;;;-0.64;100.00
5872;BME280;2962;51.312;7.378;2023-03-01T08:09:12;98407.13;;;-0.52;100.00
5872;BME280;2962;51.312;7.378;2023-03-01T08:11:38;98403.34;;;-0.40;100.00
5872;BME280;2962;51.312;7.378;2023-03-01T08:14:03;98409.41;;;-0.14;100.00
5872;BME280;2962;51.312;7.378;2023-03-01T08:16:28;98409.09;;;-0.03;100.00
5872;BME280;2962;51.312;7.378;2023-03-01T08:18:54;98407.44;;;0.07;100.00
5872;BME280;2962;51.312;7.378;2023-03-01T08:21:21;98406.53;;;0.21;100.00
5872;BME280;2962;51.312;7.378;2023-03-01T08:23:47;98402.19;;;0.36;100.00
5872;BME280;2962;51.312;7.378;2023-03-01T08:26:16;98401.84;;;0.47;100.00
5872;BME280;2962;51.312;7.378;2023-03-01T08:28:42;98407.03;;;0.68;100.00
5872;BME280;2962;51.312;7.378;2023-03-01T08:31:15;98386.63;;;0.72;100.00
5872;BME280;2962;51.312;7.378;2023-03-01T08:33:41;98392.38;;;0.89;100.00
5872;BME280;2962;51.312;7.378;2023-03-01T08:36:07;98394.47;;;0.97;100.00
5872;BME280;2962;51.312;7.378;2023-03-01T08:38:34;98386.09;;;1.04;100.00
5872;BME280;2962;51.312;7.378;2023-03-01T08:41:01;98395.84;;;1.19;100.00
5872;BME280;2962;51.312;7.378;2023-03-01T08:43:26;98386.69;;;1.25;100.00
5872;BME280;2962;51.312;7.378;2023-03-01T08:45:51;98378.06;;;1.52;100.00
5872;BME280;2962;51.312;7.378;2023-03-01T08:48:17;98367.09;;;1.49;100.00
5872;BME280;2962;51.312;7.378;2023-03-01T08:50:42;98387.78;;;1.72;100.00
5872;BME280;2962;51.312;7.378;2023-03-01T08:53:07;98394.75;;;1.73;100.00
5872;BME280;2962;51.312;7.378;2023-03-01T08:55:32;98391.25;;;1.73;100.00
5872;BME280;2962;51.312;7.378;2023-03-01T08:57:58;98395.13;;;1.61;100.00
5872;BME280;2962;51.312;7.378;2023-03-01T09:00:24;98388.44;;;1.83;100.00
5872;BME280;2962;51.312;7.378;2023-03-01T09:02:50;98374.09;;;1.92;100.00
5872;BME280;2962;51.312;7.378;2023-03-01T09:05:15;98390.00;;;2.27;100.00
5872;BME280;2962;51.312;7.378;2023-03-01T09:07:40;98387.53;;;2.30;100.00
5872;BME280;2962;51.312;7.378;2023-03-01T09:10:06;98396.25;;;2.22;100.00
5872;BME280;2962;51.312;7.378;2023-03-01T09:12:31;98398.59;;;2.48;100.00
5872;BME280;2962;51.312;7.378;2023-03-01T09:14:57;98399.63;;;2.52;100.00
5872;BME280;2962;51.312;7.378;2023-03-01T09:17:22;98385.38;;;2.32;100.00
5872;BME280;2962;51.312;7.378;2023-03-01T09:19:47;98389.28;;;2.59;100.00
5872;BME280;2962;51.312;7.378;2023-03-01T09:22:13;98380.53;;;2.67;100.00
5872;BME280;2962;51.312;7.378;2023-03-01T09:24:38;98387.53;;;2.49;100.00
5872;BME280;2962;51.312;7.378;2023-03-01T09:27:05;98383.09;;;2.58;100.00
5872;BME280;2962;51.312;7.378;2023-03-01T09:29:34;98364.63;;;2.84;100.00
5872;BME280;2962;51.312;7.378;2023-03-01T09:32:00;98365.09;;;3.05;100.00
5872;BME280;2962;51.312;7.378;2023-03-01T09:34:25;98377.84;;;3.00;100.00
5872;BME280;2962;51.312;7.378;2023-03-01T09:36:50;98357.81;;;3.06;100.00
5872;BME280;2962;51.312;7.378;2023-03-01T09:39:17;98360.25;;;3.21;100.00
5872;BME280;2962;51.312;7.378;2023-03-01T09:42:04;98355.66;;;3.22;100.00
5872;BME280;2962;51.312;7.378;2023-03-01T09:46:56;98335.81;;;3.17;100.00
5872;BME280;2962;51.312;7.378;2023-03-01T09:49:25;98359.56;;;3.71;100.00
5872;BME280;2962;51.312;7.378;2023-03-01T09:51:58;98359.34;;;3.95;100.00
5872;BME280;2962;51.312;7.378;2023-03-01T09:54:24;98349.31;;;4.09;100.00
5872;BME280;2962;51.312;7.378;2023-03-01T09:57:15;98344.97;;;4.58;100.00
5872;BME280;2962;51.312;7.378;2023-03-01T09:59:49;98361.34;;;4.61;100.00
5872;BME280;2962;51.312;7.378;2023-03-01T10:02:42;98365.88;;;4.75;100.00
5872;BME280;2962;51.312;7.378;2023-03-01T10:05:34;98367.34;;;4.58;100.00
5872;BME280;2962;51.312;7.378;2023-03-01T10:10:38;98367.53;;;4.84;100.00
5872;BME280;2962;51.312;7.378;2023-03-01T10:13:17;98365.81;;;4.88;100.00
5872;BME280;2962;51.312;7.378;2023-03-01T10:16:03;98374.94;;;4.56;100.00
5872;BME280;2962;51.312;7.378;2023-03-01T10:18:31;98359.44;;;4.84;100.00
5872;BME280;2962;51.312;7.378;2023-03-01T10:21:00;98362.19;;;4.48;100.00
5872;BME280;2962;51.312;7.378;2023-03-01T10:23:29;98368.56;;;4.97;100.00
5872;BME280;2962;51.312;7.378;2023-03-01T10:28:54;98355.44;;;5.44;100.00
5872;BME280;2962;51.312;7.378;2023-03-01T10:31:24;98342.66;;;5.67;100.00
5872;BME280;2962;51.312;7.378;2023-03-01T10:33:54;98338.72;;;5.33;100.00
5872;BME280;2962;51.312;7.378;2023-03-01T10:36:22;98319.78;;;5.33;100.00
5872;BME280;2962;51.312;7.378;2023-03-01T10:38:50;98337.81;;;5.47;100.00
5872;BME280;2962;51.312;7.378;2023-03-01T10:41:17;98336.41;;;5.18;100.00
5872;BME280;2962;51.312;7.378;2023-03-01T10:43:46;98325.41;;;5.46;100.00
5872;BME280;2962;51.312;7.378;2023-03-01T10:46:32;98323.69;;;5.50;100.00
5872;BME280;2962;51.312;7.378;2023-03-01T10:49:21;98328.53;;;5.79;100.00
5872;BME280;2962;51.312;7.378;2023-03-01T10:51:50;98326.06;;;5.51;100.00
5872;BME280;2962;51.312;7.378;2023-03-01T10:54:22;98322.13;;;5.57;100.00
5872;BME280;2962;51.312;7.378;2023-03-01T10:56:52;98310.94;;;6.25;100.00
5872;BME280;2962;51.312;7.378;2023-03-01T10:59:28;98310.13;;;6.42;100.00
5872;BME280;2962;51.312;7.378;2023-03-01T11:04:35;98303.13;;;6.41;96.41
5872;BME280;2962;51.312;7.378;2023-03-01T11:07:02;98289.59;;;6.41;96.16
5872;BME280;2962;51.312;7.378;2023-03-01T11:09:33;98292.91;;;6.64;98.12
5872;BME280;2962;51.312;7.378;2023-03-01T11:12:03;98295.50;;;7.07;93.80
5872;BME280;2962;51.312;7.378;2023-03-01T11:14:36;98281.03;;;7.71;83.56
5872;BME280;2962;51.312;7.378;2023-03-01T11:17:13;98286.53;;;7.83;87.25
5872;BME280;2962;51.312;7.378;2023-03-01T11:19:40;98277.72;;;7.86;83.87
5872;BME280;2962;51.312;7.378;2023-03-01T11:22:12;98291.22;;;7.95;80.42
5872;BME280;2962;51.312;7.378;2023-03-01T11:24:46;98275.81;;;7.87;84.19
5872;BME280;2962;51.312;7.378;2023-03-01T11:27:35;98278.88;;;8.06;80.77
5872;BME280;2962;51.312;7.378;2023-03-01T11:32:40;98283.44;;;8.35;83.79
5872;BME280;2962;51.312;7.378;2023-03-01T11:35:15;98287.88;;;8.40;79.48
5872;BME280;2962;51.312;7.378;2023-03-01T11:38:11;98281.22;;;8.83;72.88
5872;BME280;2962;51.312;7.378;2023-03-01T11:40:52;98284.09;;;8.98;71.34
5872;BME280;2962;51.312;7.378;2023-03-01T11:43:36;98286.38;;;9.09;65.79
5872;BME280;2962;51.312;7.378;2023-03-01T12:00:02;98263.75;;;9.53;71.26
5872;BME280;2962;51.312;7.378;2023-03-01T12:09:38;98263.69;;;10.43;68.87
5872;BME280;2962;51.312;7.378;2023-03-01T12:12:04;98253.59;;;11.03;66.26
5872;BME280;2962;51.312;7.378;2023-03-01T12:14:59;98252.09;;;11.06;65.14
5872;BME280;2962;51.312;7.378;2023-03-01T12:17:44;98253.53;;;10.15;59.94
5872;BME280;2962;51.312;7.378;2023-03-01T12:20:18;98250.72;;;9.47;67.04
5872;BME280;2962;51.312;7.378;2023-03-01T12:28:57;98242.97;;;7.58;82.04
5872;BME280;2962;51.312;7.378;2023-03-01T12:34:25;98240.69;;;8.65;80.86
5872;BME280;2962;51.312;7.378;2023-03-01T12:49:08;98226.72;;;8.54;81.74
5872;BME280;2962;51.312;7.378;2023-03-01T12:51:36;98219.13;;;8.48;83.43
5872;BME280;2962;51.312;7.378;2023-03-01T12:54:17;98225.09;;;8.99;82.09
5872;BME280;2962;51.312;7.378;2023-03-01T12:56:46;98221.25;;;9.24;80.75
5872;BME280;2962;51.312;7.378;2023-03-01T13:07:21;98204.72;;;10.50;69.37
5872;BME280;2962;51.312;7.378;2023-03-01T13:09:59;98213.66;;;10.07;65.53
5872;BME280;2962;51.312;7.378;2023-03-01T13:17:49;98193.66;;;10.59;68.24
5872;BME280;2962;51.312;7.378;2023-03-01T13:20:29;98192.38;;;10.85;62.67
5872;BME280;2962;51.312;7.378;2023-03-01T13:23:11;98192.38;;;10.85;62.44
5872;BME280;2962;51.312;7.378;2023-03-01T13:30:59;98199.31;;;10.66;61.63
5872;BME280;2962;51.312;7.378;2023-03-01T13:35:54;98190.09;;;10.27;65.02
5872;BME280;2962;51.312;7.378;2023-03-01T13:38:55;98194.16;;;11.44;59.03
5872;BME280;2962;51.312;7.378;2023-03-01T13:44:13;98193.66;;;11.38;55.49
5872;BME280;2962;51.312;7.378;2023-03-01T13:46:46;98186.50;;;11.85;55.44
5872;BME280;2962;51.312;7.378;2023-03-01T13:49:16;98187.41;;;11.38;56.19
5872;BME280;2962;51.312;7.378;2023-03-01T13:51:41;98177.56;;;11.17;53.94
5872;BME280;2962;51.312;7.378;2023-03-01T13:54:12;98190.81;;;10.40;57.40
5872;BME280;2962;51.312;7.378;2023-03-01T13:56:39;98175.09;;;11.28;53.77
5872;BME280;2962;51.312;7.378;2023-03-01T13:59:13;98179.22;;;11.38;53.70
5872;BME280;2962;51.312;7.378;2023-03-01T14:01:38;98173.13;;;11.99;51.13
5872;BME280;2962;51.312;7.378;2023-03-01T14:06:47;98178.53;;;13.03;48.35
5872;BME280;2962;51.312;7.378;2023-03-01T14:09:27;98171.53;;;13.06;46.35
5872;BME280;2962;51.312;7.378;2023-03-01T14:15:02;98184.94;;;13.94;44.15
5872;BME280;2962;51.312;7.378;2023-03-01T14:20:14;98175.13;;;14.57;41.24
5872;BME280;2962;51.312;7.378;2023-03-01T14:22:41;98163.16;;;14.38;41.39
5872;BME280;2962;51.312;7.378;2023-03-01T14:25:37;98159.94;;;15.73;39.41
5872;BME280;2962;51.312;7.378;2023-03-01T14:28:10;98153.00;;;14.43;40.10
5872;BME280;2962;51.312;7.378;2023-03-01T14:30:42;98151.09;;;14.47;38.88
5872;BME280;2962;51.312;7.378;2023-03-01T14:33:33;98143.97;;;14.79;38.51
5872;BME280;2962;51.312;7.378;2023-03-01T14:36:11;98146.84;;;14.97;37.98
5872;BME280;2962;51.312;7.378;2023-03-01T14:38:44;98134.44;;;14.29;38.43
5872;BME280;2962;51.312;7.378;2023-03-01T14:41:16;98132.22;;;14.38;38.65
5872;BME280;2962;51.312;7.378;2023-03-01T14:43:46;98124.56;;;14.54;37.88
5872;BME280;2962;51.312;7.378;2023-03-01T14:46:21;98122.47;;;14.85;37.31
5872;BME280;2962;51.312;7.378;2023-03-01T14:48:54;98123.84;;;15.12;37.43
5872;BME280;2962;51.312;7.378;2023-03-01T14:51:21;98124.97;;;15.04;37.39
5872;BME280;2962;51.312;7.378;2023-03-01T14:53:47;98122.66;;;14.25;38.15
5872;BME280;2962;51.312;7.378;2023-03-01T14:56:15;98136.63;;;14.94;37.53
5872;BME280;2962;51.312;7.378;2023-03-01T14:58:42;98120.44;;;15.30;37.65
5872;BME280;2962;51.312;7.378;2023-03-01T15:01:14;98108.47;;;14.49;37.53
5872;BME280;2962;51.312;7.378;2023-03-01T15:03:47;98102.06;;;14.38;38.29